createdAt,value
2023-05-23T00:01:17.238Z,97255.72
2023-05-23T00:03:45.764Z,97247.94
2023-05-23T00:06:14.841Z,97244.31
2023-05-23T00:08:43.045Z,97245.28
2023-05-23T00:11:13.530Z,97244.44
2023-05-23T00:13:41.733Z,97240.56
2023-05-23T00:16:10.870Z,97234.63
2023-05-23T00:18:40.333Z,97240.19
2023-05-23T00:21:09.936Z,97243.00
2023-05-23T00:23:38.567Z,97246.38
2023-05-23T00:26:06.882Z,97247.50
2023-05-23T00:28:36.484Z,97242.41
2023-05-23T00:31:04.960Z,97243.25
2023-05-23T00:33:34.527Z,97252.09
2023-05-23T00:36:03.688Z,97251.34
2023-05-23T00:38:31.970Z,97249.66
2023-05-23T00:41:00.360Z,97247.38
2023-05-23T00:43:29.587Z,97241.94
2023-05-23T00:45:59.438Z,97239.50
2023-05-23T00:48:28.005Z,97237.97
2023-05-23T00:50:57.087Z,97233.00
2023-05-23T00:53:25.846Z,97242.56
2023-05-23T00:55:54.325Z,97237.75
2023-05-23T00:58:22.714Z,97245.13
2023-05-23T01:00:54.514Z,97241.97
2023-05-23T01:03:28.765Z,97243.91
2023-05-23T01:05:57.513Z,97239.56
2023-05-23T01:08:25.563Z,97250.72
2023-05-23T01:10:54.045Z,97248.28
2023-05-23T01:13:34.186Z,97237.88
2023-05-23T01:16:08.805Z,97243.56
2023-05-23T01:18:42.320Z,97241.06
2023-05-23T01:21:14.206Z,97236.81
2023-05-23T01:24:17.824Z,97238.63
2023-05-23T01:27:03.231Z,97236.34
2023-05-23T01:29:35.746Z,97233.78
2023-05-23T01:32:06.794Z,97232.22
2023-05-23T01:34:37.934Z,97224.59
2023-05-23T01:37:10.634Z,97218.91
2023-05-23T01:39:40.163Z,97225.78
2023-05-23T01:42:09.862Z,97224.25
2023-05-23T01:44:40.857Z,97226.28
2023-05-23T01:47:10.912Z,97229.22
2023-05-23T01:49:40.140Z,97229.44
2023-05-23T01:52:10.677Z,97214.19
2023-05-23T01:54:43.546Z,97213.09
2023-05-23T01:57:12.435Z,97217.56
2023-05-23T01:59:42.164Z,97224.81
2023-05-23T02:02:10.486Z,97211.41
2023-05-23T02:04:38.835Z,97218.06
2023-05-23T02:07:07.543Z,97208.03
2023-05-23T02:09:35.747Z,97215.38
2023-05-23T02:12:04.104Z,97219.63
2023-05-23T02:14:32.238Z,97211.75
2023-05-23T02:17:01.765Z,97216.56
2023-05-23T02:19:30.023Z,97210.50
2023-05-23T02:21:58.261Z,97214.63
2023-05-23T02:24:26.425Z,97213.03
2023-05-23T02:26:54.651Z,97213.03
2023-05-23T02:29:22.992Z,97214.88
2023-05-23T02:31:51.308Z,97195.84
2023-05-23T02:34:20.918Z,97211.22
2023-05-23T02:36:49.038Z,97204.34
2023-05-23T02:39:17.130Z,97196.69
2023-05-23T02:41:47.135Z,97192.59
2023-05-23T02:44:15.348Z,97199.84
2023-05-23T02:46:43.584Z,97189.47
2023-05-23T02:49:11.750Z,97188.47
2023-05-23T02:51:41.258Z,97193.69
2023-05-23T02:54:09.558Z,97188.47
2023-05-23T02:56:39.232Z,97186.06
2023-05-23T02:59:07.621Z,97179.78
2023-05-23T03:01:35.831Z,97185.34
2023-05-23T03:04:04.527Z,97186.53
2023-05-23T03:06:34.298Z,97184.72
2023-05-23T03:09:04.724Z,97187.63
2023-05-23T03:11:33.036Z,97183.16
2023-05-23T03:14:01.260Z,97183.03
2023-05-23T03:16:29.602Z,97182.53
2023-05-23T03:18:57.882Z,97187.72
2023-05-23T03:21:26.496Z,97189.53
2023-05-23T03:23:54.842Z,97186.16
2023-05-23T03:26:25.607Z,97181.19
2023-05-23T03:28:53.846Z,97189.78
2023-05-23T03:31:22.237Z,97174.91
2023-05-23T03:33:50.533Z,97185.53
2023-05-23T03:36:18.816Z,97187.25
2023-05-23T03:38:47.143Z,97190.63
2023-05-23T03:41:15.976Z,97191.34
2023-05-23T03:43:46.951Z,97186.75
2023-05-23T03:46:15.270Z,97179.63
2023-05-23T03:48:43.682Z,97191.38
2023-05-23T03:51:13.619Z,97185.22
2023-05-23T03:53:42.752Z,97185.69
2023-05-23T03:56:11.437Z,97198.63
2023-05-23T03:58:39.736Z,97200.09
2023-05-23T04:01:14.753Z,97190.16
2023-05-23T04:03:43.251Z,97198.03
2023-05-23T04:06:14.133Z,97202.16
2023-05-23T04:08:45.448Z,97213.19
2023-05-23T04:11:13.726Z,97201.44
2023-05-23T04:13:43.034Z,97193.09
2023-05-23T04:16:12.560Z,97204.75
2023-05-23T04:18:43.708Z,97191.09
2023-05-23T04:21:12.084Z,97208.88
2023-05-23T04:23:48.291Z,97195.81
2023-05-23T04:26:16.451Z,97207.16
2023-05-23T04:28:50.223Z,97197.97
2023-05-23T04:31:19.244Z,97200.13
2023-05-23T04:33:49.604Z,97198.56
2023-05-23T04:36:20.360Z,97193.34
2023-05-23T04:38:53.940Z,97194.66
2023-05-23T04:41:23.734Z,97193.06
2023-05-23T04:44:24.462Z,97197.38
2023-05-23T04:47:05.376Z,97193.25
2023-05-23T04:49:49.690Z,97194.19
2023-05-23T04:52:19.201Z,97191.75
2023-05-23T04:54:48.947Z,97194.47
2023-05-23T04:57:17.349Z,97191.16
2023-05-23T04:59:46.631Z,97187.88
2023-05-23T05:02:15.053Z,97199.72
2023-05-23T05:04:43.314Z,97197.25
2023-05-23T05:07:13.344Z,97194.53
2023-05-23T05:09:41.678Z,97193.72
2023-05-23T05:12:12.283Z,97189.41
2023-05-23T05:14:41.234Z,97193.69
2023-05-23T05:17:09.822Z,97192.59
2023-05-23T05:19:51.569Z,97184.66
2023-05-23T05:22:21.127Z,97184.84
2023-05-23T05:24:49.924Z,97188.53
2023-05-23T05:27:18.087Z,97180.00
2023-05-23T05:29:46.342Z,97180.56
2023-05-23T05:32:14.551Z,97175.81
2023-05-23T05:34:43.434Z,97174.69
2023-05-23T05:37:14.280Z,97174.25
2023-05-23T05:39:44.578Z,97167.94
2023-05-23T05:42:13.532Z,97175.56
2023-05-23T05:44:41.777Z,97171.59
2023-05-23T05:47:09.981Z,97175.38
2023-05-23T05:49:38.146Z,97173.66
2023-05-23T05:52:07.060Z,97176.28
2023-05-23T05:54:36.210Z,97172.88
2023-05-23T05:57:06.225Z,97168.31
2023-05-23T05:59:34.494Z,97166.84
2023-05-23T06:02:02.613Z,97167.47
2023-05-23T06:04:30.773Z,97160.06
2023-05-23T06:06:59.986Z,97169.41
2023-05-23T06:09:28.109Z,97165.84
2023-05-23T06:11:56.272Z,97160.78
2023-05-23T06:14:26.202Z,97165.03
2023-05-23T06:16:54.928Z,97162.03
2023-05-23T06:19:23.181Z,97159.31
2023-05-23T06:21:51.905Z,97163.81
2023-05-23T06:24:21.541Z,97161.69
2023-05-23T06:26:49.747Z,97156.06
2023-05-23T06:29:18.019Z,97163.22
2023-05-23T06:31:47.639Z,97157.75
2023-05-23T06:34:15.892Z,97156.97
2023-05-23T06:36:44.128Z,97156.88
2023-05-23T06:39:12.309Z,97153.22
2023-05-23T06:41:41.049Z,97160.31
2023-05-23T06:44:09.092Z,97160.34
2023-05-23T06:46:41.990Z,97162.75
2023-05-23T06:49:15.244Z,97157.75
2023-05-23T06:51:45.863Z,97154.00
2023-05-23T06:54:14.097Z,97156.53
2023-05-23T06:56:42.590Z,97146.22
2023-05-23T06:59:10.891Z,97147.41
2023-05-23T07:01:40.074Z,97147.53
2023-05-23T07:04:08.786Z,97148.84
2023-05-23T07:06:39.988Z,97137.63
2023-05-23T07:09:09.414Z,97150.06
2023-05-23T07:11:39.615Z,97146.97
2023-05-23T07:14:08.612Z,97144.19
2023-05-23T07:16:45.783Z,97144.59
2023-05-23T07:19:14.496Z,97136.34
2023-05-23T07:21:50.205Z,97135.53
2023-05-23T07:24:19.934Z,97124.97
2023-05-23T07:26:48.928Z,97123.47
2023-05-23T07:29:17.262Z,97138.22
2023-05-23T07:31:47.822Z,97130.13
2023-05-23T07:34:16.170Z,97130.56
2023-05-23T07:36:58.269Z,97121.31
2023-05-23T07:39:28.617Z,97125.41
2023-05-23T07:41:59.313Z,97119.81
2023-05-23T07:44:27.662Z,97118.66
2023-05-23T07:46:56.197Z,97116.44
2023-05-23T07:49:25.948Z,97108.06
2023-05-23T07:51:55.294Z,97116.91
2023-05-23T07:54:24.895Z,97116.06
2023-05-23T07:56:58.444Z,97104.44
2023-05-23T07:59:27.440Z,97103.59
2023-05-23T08:01:56.356Z,97104.09
2023-05-23T08:04:26.963Z,97104.72
2023-05-23T08:09:32.220Z,97095.97
2023-05-23T08:12:01.168Z,97095.47
2023-05-23T08:14:38.728Z,97096.94
2023-05-23T08:17:44.907Z,97093.94
2023-05-23T08:20:13.722Z,97099.59
2023-05-23T08:22:42.192Z,97092.91
2023-05-23T08:25:13.427Z,97097.13
2023-05-23T08:27:42.290Z,97092.53
2023-05-23T08:30:34.102Z,97085.63
2023-05-23T08:33:04.906Z,97081.22
2023-05-23T08:35:36.485Z,97084.69
2023-05-23T08:38:09.058Z,97081.97
2023-05-23T08:40:44.771Z,97081.91
2023-05-23T08:43:15.855Z,97076.78
2023-05-23T08:45:44.782Z,97078.66
2023-05-23T08:48:15.305Z,97083.06
2023-05-23T08:50:48.764Z,97079.25
2023-05-23T08:53:21.037Z,97075.59
2023-05-23T08:55:58.849Z,97080.56
2023-05-23T08:58:34.490Z,97078.88
2023-05-23T09:01:03.754Z,97074.66
2023-05-23T09:03:33.289Z,97074.75
2023-05-23T09:06:30.998Z,97070.47
2023-05-23T09:08:59.998Z,97069.78
2023-05-23T09:11:29.722Z,97068.41
2023-05-23T09:13:59.088Z,97058.16
2023-05-23T09:16:34.120Z,97050.94
2023-05-23T09:19:12.680Z,97045.66
2023-05-23T09:21:44.976Z,97048.69
2023-05-23T09:24:18.514Z,97030.84
2023-05-23T09:26:50.035Z,97028.78
2023-05-23T09:29:21.954Z,97040.41
2023-05-23T09:31:50.260Z,97040.19
2023-05-23T09:34:18.387Z,97042.06
2023-05-23T09:36:48.681Z,97037.41
2023-05-23T09:39:16.961Z,97033.03
2023-05-23T09:41:45.280Z,97027.56
2023-05-23T09:44:24.777Z,97025.28
2023-05-23T09:46:54.089Z,97016.25
2023-05-23T09:49:23.123Z,97013.16
2023-05-23T09:51:59.052Z,97019.31
2023-05-23T09:54:27.287Z,97012.19
2023-05-23T09:56:57.759Z,97008.88
2023-05-23T09:59:30.691Z,97013.34
2023-05-23T10:02:01.959Z,97010.16
2023-05-23T10:04:36.245Z,97003.06
2023-05-23T10:07:11.602Z,97007.25
2023-05-23T10:09:43.100Z,97001.44
2023-05-23T10:12:43.441Z,96996.22
2023-05-23T10:15:16.856Z,96984.72
2023-05-23T10:18:09.143Z,96992.41
2023-05-23T10:20:37.829Z,96996.00
2023-05-23T10:23:06.968Z,96995.94
2023-05-23T10:25:37.265Z,96984.38
2023-05-23T10:28:06.802Z,96977.53
2023-05-23T10:30:36.651Z,96975.56
2023-05-23T10:33:06.647Z,96974.66
2023-05-23T10:35:43.892Z,96968.88
2023-05-23T10:38:23.092Z,96959.59
2023-05-23T10:40:58.259Z,96952.91
2023-05-23T10:43:30.781Z,96950.91
2023-05-23T10:46:01.041Z,96946.66
2023-05-23T10:48:35.580Z,96942.00
2023-05-23T10:51:06.180Z,96928.22
2023-05-23T10:53:37.189Z,96935.78
2023-05-23T10:56:09.371Z,96935.78
2023-05-23T10:58:39.766Z,96928.91
2023-05-23T11:01:10.586Z,96924.88
2023-05-23T11:03:54.023Z,96933.78
2023-05-23T11:06:32.449Z,96940.16
2023-05-23T11:09:07.648Z,96956.97
2023-05-23T11:11:57.965Z,96949.81
2023-05-23T11:14:34.357Z,96947.00
2023-05-23T11:17:18.200Z,96949.47
2023-05-23T11:20:00.982Z,96955.03
2023-05-23T11:22:30.891Z,96960.59
2023-05-23T11:25:00.107Z,96957.72
2023-05-23T11:27:29.618Z,96946.31
2023-05-23T11:30:03.774Z,96942.25
2023-05-23T11:32:33.914Z,96931.25
2023-05-23T11:35:02.983Z,96923.75
2023-05-23T11:37:31.724Z,96921.28
2023-05-23T11:40:02.197Z,96911.41
2023-05-23T11:42:30.467Z,96925.88
2023-05-23T11:44:58.652Z,96942.38
2023-05-23T11:47:26.900Z,96962.44
2023-05-23T11:49:56.528Z,96991.91
2023-05-23T11:52:24.721Z,97064.28
2023-05-23T11:54:55.019Z,97113.47
2023-05-23T11:57:23.825Z,97108.16
2023-05-23T11:59:53.161Z,97110.25
2023-05-23T12:02:23.002Z,97101.00
2023-05-23T12:04:51.406Z,97126.69
2023-05-23T12:07:22.448Z,97152.16
2023-05-23T12:09:50.653Z,97189.69
2023-05-23T12:12:20.627Z,97206.31
2023-05-23T12:14:48.824Z,97229.81
2023-05-23T12:17:17.183Z,97249.50
2023-05-23T12:19:47.905Z,97250.28
2023-05-23T12:22:16.262Z,97255.38
2023-05-23T12:24:48.866Z,97258.72
2023-05-23T12:27:18.711Z,97260.97
2023-05-23T12:29:52.742Z,97267.09
2023-05-23T12:32:20.943Z,97267.69
2023-05-23T12:34:50.944Z,97268.84
2023-05-23T12:37:20.443Z,97273.03
2023-05-23T12:40:00.175Z,97263.19
2023-05-23T12:42:30.573Z,97262.22
2023-05-23T12:44:59.403Z,97254.75
2023-05-23T12:47:27.665Z,97243.34
2023-05-23T12:49:55.986Z,97252.09
2023-05-23T12:52:24.697Z,97246.59
2023-05-23T12:54:53.325Z,97249.00
2023-05-23T12:57:22.821Z,97256.34
2023-05-23T12:59:51.151Z,97263.84
2023-05-23T13:02:19.889Z,97266.78
2023-05-23T13:04:48.125Z,97261.44
2023-05-23T13:07:16.242Z,97248.16
2023-05-23T13:09:44.420Z,97236.16
2023-05-23T13:12:13.846Z,97230.94
2023-05-23T13:14:43.734Z,97220.44
2023-05-23T13:17:12.662Z,97218.03
2023-05-23T13:19:41.200Z,97212.13
2023-05-23T13:22:10.646Z,97208.16
2023-05-23T13:24:39.010Z,97211.66
2023-05-23T13:27:08.180Z,97205.59
2023-05-23T13:29:36.383Z,97199.97
2023-05-23T13:32:06.496Z,97195.31
2023-05-23T13:34:37.470Z,97182.34
2023-05-23T13:37:06.214Z,97178.81
2023-05-23T13:39:34.557Z,97183.72
2023-05-23T13:42:02.822Z,97180.75
2023-05-23T13:44:31.633Z,97182.31
2023-05-23T13:47:12.856Z,97177.81
2023-05-23T13:49:46.186Z,97184.16
2023-05-23T13:52:14.652Z,97190.38
2023-05-23T13:54:43.557Z,97199.09
2023-05-23T13:57:12.032Z,97205.59
2023-05-23T13:59:40.230Z,97214.19
2023-05-23T14:02:09.159Z,97222.38
2023-05-23T14:04:37.477Z,97227.72
2023-05-23T14:07:07.061Z,97229.81
2023-05-23T14:09:35.282Z,97232.94
2023-05-23T14:12:03.642Z,97236.00
2023-05-23T14:14:31.741Z,97231.19
2023-05-23T14:16:59.904Z,97223.41
2023-05-23T14:19:28.092Z,97220.75
2023-05-23T14:21:56.301Z,97203.19
2023-05-23T14:24:25.922Z,97217.44
2023-05-23T14:26:54.082Z,97216.66
2023-05-23T14:29:22.362Z,97215.78
2023-05-23T14:31:50.546Z,97210.28
2023-05-23T14:34:18.922Z,97203.69
2023-05-23T14:36:47.202Z,97215.22
2023-05-23T14:39:15.927Z,97221.38
2023-05-23T14:41:46.941Z,97215.91
2023-05-23T14:44:15.103Z,97210.88
2023-05-23T14:46:48.500Z,97200.53
2023-05-23T14:49:16.849Z,97199.75
2023-05-23T14:51:50.324Z,97205.72
2023-05-23T14:54:19.938Z,97216.66
2023-05-23T14:56:51.301Z,97215.69
2023-05-23T14:59:21.931Z,97218.16
2023-05-23T15:01:50.452Z,97214.97
2023-05-23T15:04:18.753Z,97218.56
2023-05-23T15:06:47.437Z,97216.59
2023-05-23T15:09:15.663Z,97215.94
2023-05-23T15:11:45.328Z,97211.44
2023-05-23T15:14:14.835Z,97221.44
2023-05-23T15:16:44.652Z,97224.31
2023-05-23T15:19:13.089Z,97229.94
2023-05-23T15:21:49.977Z,97231.44
2023-05-23T15:24:19.570Z,97227.53
2023-05-23T15:26:49.021Z,97226.38
2023-05-23T15:29:18.931Z,97219.88
2023-05-23T15:31:47.220Z,97218.16
2023-05-23T15:34:15.395Z,97221.22
2023-05-23T15:36:43.579Z,97219.59
2023-05-23T15:39:12.783Z,97214.50
2023-05-23T15:41:41.620Z,97215.78
2023-05-23T15:44:10.572Z,97213.25
2023-05-23T15:46:41.061Z,97210.56
2023-05-23T15:49:24.439Z,97218.56
2023-05-23T15:51:55.409Z,97216.03
2023-05-23T15:54:23.839Z,97204.66
2023-05-23T15:56:51.951Z,97206.47
2023-05-23T15:59:20.146Z,97199.56
2023-05-23T16:01:49.732Z,97200.63
2023-05-23T16:04:18.029Z,97206.47
2023-05-23T16:06:46.342Z,97197.34
2023-05-23T16:09:14.594Z,97202.72
2023-05-23T16:11:42.957Z,97209.50
2023-05-23T16:14:11.085Z,97206.91
2023-05-23T16:16:39.331Z,97212.88
2023-05-23T16:19:09.007Z,97206.91
2023-05-23T16:21:37.211Z,97214.94
2023-05-23T16:24:06.194Z,97211.03
2023-05-23T16:26:34.365Z,97211.41
2023-05-23T16:29:02.573Z,97222.16
2023-05-23T16:31:31.599Z,97225.28
2023-05-23T16:34:00.155Z,97230.28
2023-05-23T16:36:29.795Z,97222.91
2023-05-23T16:38:58.119Z,97227.25
2023-05-23T16:41:26.457Z,97226.03
2023-05-23T16:43:54.534Z,97224.31
2023-05-23T16:46:23.335Z,97217.25
2023-05-23T16:48:51.481Z,97218.84
2023-05-23T16:51:19.645Z,97222.63
2023-05-23T16:53:49.328Z,97226.53
2023-05-23T16:56:17.458Z,97223.22
2023-05-23T16:58:45.680Z,97224.09
2023-05-23T17:01:14.091Z,97220.47
2023-05-23T17:03:42.441Z,97225.81
2023-05-23T17:06:10.848Z,97225.72
2023-05-23T17:08:39.075Z,97228.34
2023-05-23T17:11:08.710Z,97225.81
2023-05-23T17:13:36.804Z,97228.91
2023-05-23T17:16:05.604Z,97216.25
2023-05-23T17:18:33.900Z,97220.72
2023-05-23T17:21:02.219Z,97224.53
2023-05-23T17:23:30.450Z,97225.78
2023-05-23T17:25:58.567Z,97235.31
2023-05-23T17:28:28.103Z,97231.94
2023-05-23T17:30:56.241Z,97234.47
2023-05-23T17:33:24.475Z,97232.94
2023-05-23T17:35:52.688Z,97238.75
2023-05-23T17:38:20.852Z,97245.34
2023-05-23T17:40:48.997Z,97252.41
2023-05-23T17:43:17.298Z,97247.94
2023-05-23T17:45:46.995Z,97257.66
2023-05-23T17:48:16.298Z,97257.25
2023-05-23T17:50:45.990Z,97262.63
2023-05-23T17:53:15.167Z,97262.34
2023-05-23T17:55:43.287Z,97271.13
2023-05-23T17:58:11.421Z,97270.56
2023-05-23T18:00:39.705Z,97261.81
2023-05-23T18:03:09.590Z,97265.50
2023-05-23T18:05:37.774Z,97258.03
2023-05-23T18:08:06.783Z,97256.25
2023-05-23T18:10:35.028Z,97265.41
2023-05-23T18:13:03.197Z,97259.31
2023-05-23T18:15:31.632Z,97260.47
2023-05-23T18:17:59.853Z,97263.56
2023-05-23T18:20:29.547Z,97259.66
2023-05-23T18:22:57.704Z,97254.03
2023-05-23T18:25:28.216Z,97253.47
2023-05-23T18:27:56.649Z,97253.22
2023-05-23T18:30:25.176Z,97250.72
2023-05-23T18:32:53.455Z,97258.88
2023-05-23T18:35:22.732Z,97256.66
2023-05-23T18:37:52.992Z,97262.28
2023-05-23T18:40:21.864Z,97255.81
2023-05-23T18:42:50.386Z,97266.09
2023-05-23T18:45:18.946Z,97262.31
2023-05-23T18:47:47.798Z,97257.53
2023-05-23T18:50:16.135Z,97270.19
2023-05-23T18:52:44.708Z,97263.41
2023-05-23T18:55:14.188Z,97265.09
2023-05-23T18:57:42.378Z,97275.78
2023-05-23T19:00:11.653Z,97268.16
2023-05-23T19:02:44.319Z,97275.22
2023-05-23T19:05:13.082Z,97280.56
2023-05-23T19:07:41.549Z,97273.50
2023-05-23T19:10:10.524Z,97291.38
2023-05-23T19:12:40.657Z,97279.41
2023-05-23T19:15:11.441Z,97283.78
2023-05-23T19:17:39.969Z,97283.38
2023-05-23T19:20:10.045Z,97287.88
2023-05-23T19:22:50.189Z,97287.28
2023-05-23T19:25:19.068Z,97297.97
2023-05-23T19:27:48.703Z,97296.97
2023-05-23T19:30:17.020Z,97295.16
2023-05-23T19:32:45.342Z,97294.19
2023-05-23T19:35:16.578Z,97297.84
2023-05-23T19:37:45.274Z,97290.50
2023-05-23T19:40:14.176Z,97297.97
2023-05-23T19:42:42.353Z,97296.97
2023-05-23T19:45:13.621Z,97305.25
2023-05-23T19:47:42.054Z,97297.38
2023-05-23T19:50:12.693Z,97307.22
2023-05-23T19:52:41.249Z,97302.16
2023-05-23T19:55:10.570Z,97294.00
2023-05-23T19:57:38.672Z,97305.09
2023-05-23T20:00:09.935Z,97307.22
2023-05-23T20:02:39.697Z,97316.22
2023-05-23T20:05:09.247Z,97319.13
2023-05-23T20:07:37.757Z,97315.34
2023-05-23T20:10:07.498Z,97304.38
2023-05-23T20:12:35.836Z,97302.84
2023-05-23T20:15:05.237Z,97314.97
2023-05-23T20:17:33.577Z,97299.91
2023-05-23T20:20:04.266Z,97313.03
2023-05-23T20:22:32.387Z,97303.31
2023-05-23T20:25:00.563Z,97301.19
2023-05-23T20:27:29.011Z,97304.16
2023-05-23T20:29:57.239Z,97311.72
2023-05-23T20:32:25.585Z,97318.47
2023-05-23T20:34:54.084Z,97320.88
2023-05-23T20:37:23.849Z,97318.03
2023-05-23T20:39:52.560Z,97320.97
2023-05-23T20:42:20.869Z,97330.41
2023-05-23T20:44:49.293Z,97331.44
2023-05-23T20:47:17.826Z,97322.72
2023-05-23T20:49:47.776Z,97328.59
2023-05-23T20:52:16.018Z,97330.59
2023-05-23T20:54:48.207Z,97328.91
2023-05-23T20:57:16.433Z,97330.31
2023-05-23T20:59:44.825Z,97337.88
2023-05-23T21:02:13.918Z,97328.72
2023-05-23T21:04:42.169Z,97335.91
2023-05-23T21:07:10.336Z,97333.94
2023-05-23T21:09:38.568Z,97336.75
2023-05-23T21:12:11.173Z,97331.66
2023-05-23T21:14:39.277Z,97333.09
2023-05-23T21:17:07.552Z,97351.09
2023-05-23T21:19:35.828Z,97341.78
2023-05-23T21:22:04.229Z,97346.59
2023-05-23T21:24:32.335Z,97341.09
2023-05-23T21:27:01.783Z,97342.66
2023-05-23T21:29:31.370Z,97339.59
2023-05-23T21:31:59.578Z,97340.16
2023-05-23T21:34:27.805Z,97335.78
2023-05-23T21:36:55.941Z,97319.34
2023-05-23T21:39:24.130Z,97325.25
2023-05-23T21:41:52.229Z,97326.53
2023-05-23T21:44:20.458Z,97324.94
2023-05-23T21:46:50.601Z,97322.84
2023-05-23T21:49:18.845Z,97323.53
2023-05-23T21:51:46.974Z,97331.56
2023-05-23T21:54:15.123Z,97336.75
2023-05-23T21:56:43.303Z,97326.31
2023-05-23T21:59:11.585Z,97323.63
2023-05-23T22:01:39.766Z,97320.97
2023-05-23T22:04:09.487Z,97325.16
2023-05-23T22:06:38.663Z,97321.75
2023-05-23T22:09:10.219Z,97324.91
2023-05-23T22:11:38.372Z,97326.84
2023-05-23T22:14:06.664Z,97341.19
2023-05-23T22:16:39.154Z,97342.16
2023-05-23T22:19:08.269Z,97344.59
2023-05-23T22:21:37.986Z,97347.25
2023-05-23T22:24:06.712Z,97349.63
2023-05-23T22:26:34.794Z,97351.50
2023-05-23T22:29:03.003Z,97350.47
2023-05-23T22:31:31.195Z,97356.25
2023-05-23T22:33:59.416Z,97353.81
2023-05-23T22:36:27.525Z,97357.22
2023-05-23T22:38:57.336Z,97344.84
2023-05-23T22:41:25.471Z,97346.53
2023-05-23T22:43:53.618Z,97355.53
2023-05-23T22:46:21.863Z,97350.19
2023-05-23T22:48:52.618Z,97358.19
2023-05-23T22:51:20.917Z,97352.66
2023-05-23T22:53:49.214Z,97356.06
2023-05-23T22:56:18.898Z,97354.38
2023-05-23T22:58:47.031Z,97357.44
2023-05-23T23:01:15.159Z,97358.31
2023-05-23T23:03:43.378Z,97356.59
2023-05-23T23:06:12.371Z,97352.97
2023-05-23T23:08:40.541Z,97351.50
2023-05-23T23:11:08.692Z,97353.63
2023-05-23T23:13:38.164Z,97356.66
2023-05-23T23:16:08.703Z,97347.25
2023-05-23T23:18:37.176Z,97350.63
2023-05-23T23:21:05.998Z,97359.63
2023-05-23T23:23:34.126Z,97358.91
2023-05-23T23:26:02.298Z,97361.56
2023-05-23T23:28:30.406Z,97358.47
2023-05-23T23:31:00.010Z,97367.31
2023-05-23T23:33:28.276Z,97366.16
2023-05-23T23:35:56.554Z,97372.19
2023-05-23T23:38:24.721Z,97371.38
2023-05-23T23:40:53.542Z,97371.09
2023-05-23T23:43:22.024Z,97368.69
2023-05-23T23:45:50.178Z,97381.38
2023-05-23T23:48:19.789Z,97386.47
2023-05-23T23:50:47.864Z,97375.00
2023-05-23T23:53:17.018Z,97379.38
2023-05-23T23:55:45.187Z,97376.44
2023-05-23T23:58:13.329Z,97380.56
